createdAt,value
2023-03-22T00:29:55.870Z,1001.84
2023-03-22T00:30:35.389Z,1001.8
2023-03-22T00:31:15.971Z,1001.8
2023-03-22T00:31:56.465Z,1001.8
2023-03-22T00:32:36.978Z,1001.75
2023-03-22T00:33:17.510Z,1001.74
2023-03-22T00:33:58.116Z,1001.8
2023-03-22T00:34:38.546Z,1001.74
2023-03-22T00:35:19.042Z,1001.81
2023-03-22T00:35:59.505Z,1001.79
2023-03-22T00:36:40.062Z,1001.75
2023-03-22T00:37:20.488Z,1001.75
2023-03-22T00:38:00.977Z,1001.74
2023-03-22T00:38:43.104Z,1001.73
2023-03-22T00:39:21.940Z,1001.71
2023-03-22T00:40:02.490Z,1001.73
2023-03-22T00:40:42.980Z,1001.71
2023-03-22T00:41:23.437Z,1001.71
2023-03-22T00:42:03.895Z,1001.69
2023-03-22T00:42:44.413Z,1001.68
2023-03-22T00:43:24.899Z,1001.69
2023-03-22T00:44:05.397Z,1001.67
2023-03-22T00:44:45.914Z,1001.67
2023-03-22T00:45:26.381Z,1001.6
2023-03-22T00:46:06.870Z,1001.64
2023-03-22T00:46:47.352Z,1001.56
2023-03-22T00:47:27.867Z,1001.56
2023-03-22T00:48:08.474Z,1001.55
2023-03-22T00:49:29.357Z,1001.57
2023-03-22T00:50:09.858Z,1001.58
2023-03-22T00:50:50.305Z,1001.54
2023-03-22T00:51:30.857Z,1001.55
2023-03-22T00:52:11.291Z,1001.53
2023-03-22T00:52:52.374Z,1001.51
2023-03-22T00:53:32.295Z,1001.54
2023-03-22T00:54:12.807Z,1001.5
2023-03-22T00:54:53.285Z,1001.53
2023-03-22T00:55:33.811Z,1001.51
2023-03-22T00:56:14.552Z,1001.51
2023-03-22T00:56:54.787Z,1001.46
2023-03-22T00:57:35.303Z,1001.44
2023-03-22T00:58:15.769Z,1001.43
2023-03-22T00:59:36.740Z,1001.47
2023-03-22T01:00:17.266Z,1001.47
2023-03-22T01:03:31.065Z,1001.42
2023-03-22T01:04:11.542Z,1001.38
2023-03-22T01:04:52.030Z,1001.4
2023-03-22T01:05:32.470Z,1001.38
2023-03-22T01:06:12.972Z,1001.42
2023-03-22T01:06:53.515Z,1001.38
2023-03-22T01:07:33.971Z,1001.38
2023-03-22T01:08:14.439Z,1001.42
2023-03-22T01:09:36.005Z,1001.41
2023-03-22T01:10:16.521Z,1001.39
2023-03-22T01:10:57.027Z,1001.37
2023-03-22T01:13:55.617Z,1001.37
2023-03-22T01:14:36.090Z,1001.35
2023-03-22T01:15:16.549Z,1001.34
2023-03-22T01:15:57.025Z,1001.32
2023-03-22T01:16:37.562Z,1001.37
2023-03-22T01:17:18.010Z,1001.34
2023-03-22T01:17:58.481Z,1001.36
2023-03-22T01:18:39.044Z,1001.34
2023-03-22T01:19:20.053Z,1001.34
2023-03-22T01:20:00.568Z,1001.34
2023-03-22T01:20:41.413Z,1001.31
2023-03-22T01:21:21.583Z,1001.32
2023-03-22T01:22:02.089Z,1001.32
2023-03-22T01:22:42.608Z,1001.28
2023-03-22T01:23:23.102Z,1001.29
2023-03-22T01:24:03.611Z,1001.25
2023-03-22T01:24:44.075Z,1001.25
2023-03-22T01:25:24.577Z,1001.24
2023-03-22T01:26:05.068Z,1001.25
2023-03-22T01:26:45.545Z,1001.23
2023-03-22T01:27:26.025Z,1001.2
2023-03-22T01:28:06.525Z,1001.18
2023-03-22T01:28:47.027Z,1001.17
2023-03-22T01:29:27.519Z,1001.2
2023-03-22T01:30:08.008Z,1001.22
2023-03-22T01:30:48.535Z,1001.2
2023-03-22T01:32:09.490Z,1001.23
2023-03-22T01:32:49.987Z,1001.25
2023-03-22T01:33:30.489Z,1001.2
2023-03-22T01:34:11.006Z,1001.22
2023-03-22T01:34:51.450Z,1001.23
2023-03-22T01:35:32.032Z,1001.18
2023-03-22T01:36:12.481Z,1001.17
2023-03-22T01:36:53.005Z,1001.14
2023-03-22T01:37:33.436Z,1001.16
2023-03-22T01:38:13.918Z,1001.17
2023-03-22T01:38:54.408Z,1001.18
2023-03-22T01:39:34.928Z,1001.13
2023-03-22T01:40:15.404Z,1001.14
2023-03-22T01:40:55.901Z,1001.11
2023-03-22T01:42:16.874Z,1001.07
2023-03-22T01:42:57.358Z,1001.09
2023-03-22T01:43:37.871Z,1001.07
2023-03-22T01:44:18.338Z,1001.04
2023-03-22T01:44:58.827Z,1001.06
2023-03-22T01:45:39.319Z,1001.01
2023-03-22T01:46:19.834Z,1001.04
2023-03-22T01:47:00.263Z,1001.04
2023-03-22T01:47:40.828Z,1000.98
2023-03-22T01:48:21.326Z,1001.04
2023-03-22T01:49:01.738Z,1001
2023-03-22T01:49:42.269Z,1001
2023-03-22T01:50:22.673Z,1000.98
2023-03-22T01:51:03.133Z,1001
2023-03-22T01:51:43.905Z,1000.99
2023-03-22T01:52:24.123Z,1000.96
2023-03-22T01:53:04.622Z,1000.94
2023-03-22T01:53:45.125Z,1000.96
2023-03-22T01:55:06.289Z,1000.94
2023-03-22T01:55:46.734Z,1000.93
2023-03-22T01:56:27.213Z,1000.91
2023-03-22T01:57:07.735Z,1000.94
2023-03-22T01:57:48.312Z,1000.93
2023-03-22T01:58:28.723Z,1000.92
2023-03-22T01:59:09.230Z,1000.89
2023-03-22T01:59:49.717Z,1000.91
2023-03-22T02:00:30.228Z,1000.89
2023-03-22T02:01:10.753Z,1000.93
2023-03-22T02:01:51.299Z,1000.9
2023-03-22T02:02:31.739Z,1000.88
2023-03-22T02:03:12.252Z,1000.91
2023-03-22T02:03:52.728Z,1000.93
2023-03-22T02:04:33.218Z,1000.9
2023-03-22T02:05:13.772Z,1000.87
2023-03-22T02:05:54.182Z,1000.89
2023-03-22T02:06:34.639Z,1000.86
2023-03-22T02:07:15.180Z,1000.86
2023-03-22T02:07:55.674Z,1000.87
2023-03-22T02:08:36.160Z,1000.88
2023-03-22T02:09:16.702Z,1000.79
2023-03-22T02:09:57.158Z,1000.79
2023-03-22T02:10:37.891Z,1000.8
2023-03-22T02:11:18.132Z,1000.79
2023-03-22T02:11:58.646Z,1000.79
2023-03-22T02:12:39.089Z,1000.78
2023-03-22T02:13:19.607Z,1000.75
2023-03-22T02:14:00.115Z,1000.79
2023-03-22T02:14:40.630Z,1000.71
2023-03-22T02:15:21.135Z,1000.74
2023-03-22T02:16:01.630Z,1000.73
2023-03-22T02:16:42.172Z,1000.72
2023-03-22T02:17:22.645Z,1000.7
2023-03-22T02:18:03.154Z,1000.67
2023-03-22T02:18:43.644Z,1000.69
2023-03-22T02:19:24.144Z,1000.62
2023-03-22T02:20:04.663Z,1000.63
2023-03-22T02:20:45.174Z,1000.64
2023-03-22T02:21:25.651Z,1000.64
2023-03-22T02:22:06.197Z,1000.61
2023-03-22T02:22:46.702Z,1000.63
2023-03-22T02:23:27.182Z,1000.56
2023-03-22T02:24:07.637Z,1000.58
2023-03-22T02:24:48.177Z,1000.56
2023-03-22T02:25:28.731Z,1000.6
2023-03-22T02:26:09.160Z,1000.61
2023-03-22T02:26:49.648Z,1000.62
2023-03-22T02:27:30.158Z,1000.56
2023-03-22T02:28:10.640Z,1000.56
2023-03-22T02:28:51.143Z,1000.55
2023-03-22T02:29:32.252Z,1000.6
2023-03-22T02:30:12.796Z,1000.62
2023-03-22T02:30:53.321Z,1000.58
2023-03-22T02:32:14.251Z,1000.56
2023-03-22T02:32:54.760Z,1000.6
2023-03-22T02:33:35.288Z,1000.56
2023-03-22T02:34:15.784Z,1000.57
2023-03-22T02:34:56.249Z,1000.58
2023-03-22T02:35:36.790Z,1000.57
2023-03-22T02:36:17.238Z,1000.58
2023-03-22T02:36:57.778Z,1000.58
2023-03-22T02:37:38.201Z,1000.57
2023-03-22T02:38:18.716Z,1000.56
2023-03-22T02:38:59.213Z,1000.55
2023-03-22T02:39:39.697Z,1000.51
2023-03-22T02:40:20.251Z,1000.53
2023-03-22T02:41:00.707Z,1000.55
2023-03-22T02:41:41.242Z,1000.53
2023-03-22T02:42:21.746Z,1000.5
2023-03-22T02:43:02.278Z,1000.55
2023-03-22T02:43:42.722Z,1000.53
2023-03-22T02:44:23.199Z,1000.45
2023-03-22T02:45:44.266Z,1000.44
2023-03-22T02:46:24.764Z,1000.42
2023-03-22T02:47:05.285Z,1000.45
2023-03-22T02:47:45.807Z,1000.43
2023-03-22T02:48:26.323Z,1000.48
2023-03-22T02:49:06.736Z,1000.36
2023-03-22T02:49:47.292Z,1000.4
2023-03-22T02:50:27.725Z,1000.35
2023-03-22T02:51:09.209Z,1000.4
2023-03-22T02:51:48.794Z,1000.41
2023-03-22T02:52:29.289Z,1000.37
2023-03-22T02:53:09.738Z,1000.38
2023-03-22T02:53:50.265Z,1000.35
2023-03-22T02:54:30.750Z,1000.36
2023-03-22T02:55:11.221Z,1000.35
2023-03-22T02:55:51.692Z,1000.31
2023-03-22T02:56:32.175Z,1000.31
2023-03-22T02:57:12.703Z,1000.36
2023-03-22T02:58:33.654Z,1000.27
2023-03-22T02:59:14.134Z,1000.28
2023-03-22T02:59:54.600Z,1000.25
2023-03-22T03:00:35.102Z,1000.25
2023-03-22T03:01:15.653Z,1000.23
2023-03-22T03:01:56.095Z,1000.26
2023-03-22T03:02:36.527Z,1000.22
2023-03-22T03:03:17.063Z,1000.24
2023-03-22T03:03:57.564Z,1000.25
2023-03-22T03:04:38.063Z,1000.23
2023-03-22T03:05:18.588Z,1000.24
2023-03-22T03:05:59.046Z,1000.22
2023-03-22T03:06:39.590Z,1000.27
2023-03-22T03:07:20.100Z,1000.25
2023-03-22T03:08:00.570Z,1000.26
2023-03-22T03:08:41.131Z,1000.26
2023-03-22T03:09:21.619Z,1000.26
2023-03-22T03:10:02.171Z,1000.27
2023-03-22T03:10:42.618Z,1000.25
2023-03-22T03:11:23.148Z,1000.3
2023-03-22T03:12:03.614Z,1000.25
2023-03-22T03:12:44.086Z,1000.28
2023-03-22T03:13:24.625Z,1000.24
2023-03-22T03:14:05.050Z,1000.25
2023-03-22T03:14:45.544Z,1000.23
2023-03-22T03:15:26.062Z,1000.24
2023-03-22T03:16:06.571Z,1000.25
2023-03-22T03:16:47.069Z,1000.23
2023-03-22T03:17:27.531Z,1000.22
2023-03-22T03:18:08.066Z,1000.26
2023-03-22T03:18:48.541Z,1000.26
2023-03-22T03:19:29.031Z,1000.26
2023-03-22T03:20:09.554Z,1000.3
2023-03-22T03:20:50.082Z,1000.27
2023-03-22T03:21:30.623Z,1000.29
2023-03-22T03:22:11.142Z,1000.29
2023-03-22T03:22:52.423Z,1000.29
2023-03-22T03:23:33.018Z,1000.26
2023-03-22T03:24:13.442Z,1000.23
2023-03-22T03:26:11.093Z,1000.24
2023-03-22T03:26:51.621Z,1000.25
2023-03-22T03:27:32.092Z,1000.25
2023-03-22T03:28:12.607Z,1000.22
2023-03-22T03:29:33.629Z,1000.19
2023-03-22T03:30:14.178Z,1000.23
2023-03-22T03:30:54.661Z,1000.18
2023-03-22T03:31:35.247Z,1000.2
2023-03-22T03:32:15.692Z,1000.22
2023-03-22T03:32:56.154Z,1000.23
2023-03-22T03:33:36.645Z,1000.21
2023-03-22T03:34:17.184Z,1000.21
2023-03-22T03:34:57.646Z,1000.23
2023-03-22T03:35:38.157Z,1000.21
2023-03-22T03:36:18.680Z,1000.21
2023-03-22T03:36:59.170Z,1000.23
2023-03-22T03:37:39.700Z,1000.27
2023-03-22T03:38:20.238Z,1000.2
2023-03-22T03:39:41.194Z,1000.24
2023-03-22T03:40:21.735Z,1000.23
2023-03-22T03:41:02.251Z,1000.23
2023-03-22T03:41:42.754Z,1000.14
2023-03-22T03:42:23.272Z,1000.15
2023-03-22T03:43:03.786Z,1000.24
2023-03-22T03:43:44.289Z,1000.19
2023-03-22T03:44:24.778Z,1000.21
2023-03-22T03:45:05.265Z,1000.24
2023-03-22T03:45:45.833Z,1000.2
2023-03-22T03:46:26.224Z,1000.22
2023-03-22T03:47:06.729Z,1000.23
2023-03-22T03:47:48.234Z,1000.2
2023-03-22T03:48:28.691Z,1000.24
2023-03-22T03:49:09.173Z,1000.22
2023-03-22T03:49:49.672Z,1000.27
2023-03-22T03:50:30.186Z,1000.2
2023-03-22T03:51:10.692Z,1000.17
2023-03-22T03:51:51.175Z,1000.28
2023-03-22T03:52:31.691Z,1000.23
2023-03-22T03:53:12.187Z,1000.25
2023-03-22T03:53:52.684Z,1000.23
2023-03-22T03:54:33.163Z,1000.22
2023-03-22T03:55:13.660Z,1000.24
2023-03-22T03:55:54.144Z,1000.23
2023-03-22T03:57:15.087Z,1000.21
2023-03-22T03:57:55.579Z,1000.17
2023-03-22T03:58:36.084Z,1000.15
2023-03-22T03:59:16.594Z,1000.17
2023-03-22T03:59:57.059Z,1000.15
2023-03-22T04:00:37.735Z,1000.14
2023-03-22T04:01:18.050Z,1000.11
2023-03-22T04:01:58.595Z,1000.13
2023-03-22T04:02:39.125Z,1000.12
2023-03-22T04:03:19.592Z,1000.15
2023-03-22T04:04:00.201Z,1000.15
2023-03-22T04:04:40.679Z,1000.14
2023-03-22T04:05:21.143Z,1000.14
2023-03-22T04:06:01.634Z,1000.16
2023-03-22T04:06:42.106Z,1000.11
2023-03-22T04:07:22.614Z,1000.1
2023-03-22T04:08:03.137Z,1000.17
2023-03-22T04:11:16.834Z,1000.23
2023-03-22T04:11:57.227Z,1000.25
2023-03-22T04:12:37.709Z,1000.21
2023-03-22T04:13:18.161Z,1000.23
2023-03-22T04:13:58.645Z,1000.24
2023-03-22T04:14:39.158Z,1000.21
2023-03-22T04:15:19.661Z,1000.26
2023-03-22T04:16:00.192Z,1000.2
2023-03-22T04:17:21.242Z,1000.22
2023-03-22T04:18:01.705Z,1000.19
2023-03-22T04:18:42.207Z,1000.16
2023-03-22T04:19:22.664Z,1000.18
2023-03-22T04:20:04.778Z,1000.18
2023-03-22T04:20:43.656Z,1000.16
2023-03-22T04:21:24.127Z,1000.17
2023-03-22T04:22:04.610Z,1000.13
2023-03-22T04:22:45.111Z,1000.13
2023-03-22T04:23:25.605Z,1000.12
2023-03-22T04:24:47.359Z,1000.11
2023-03-22T04:25:27.078Z,1000.08
2023-03-22T04:26:07.581Z,1000.15
2023-03-22T04:26:48.127Z,1000.09
2023-03-22T04:27:28.570Z,1000.09
2023-03-22T04:28:09.034Z,1000.06
2023-03-22T04:28:49.522Z,1000.09
2023-03-22T04:29:30.024Z,1000.08
2023-03-22T04:30:10.486Z,1000.09
2023-03-22T04:30:51.113Z,1000.07
2023-03-22T04:31:31.480Z,1000.07
2023-03-22T04:32:11.972Z,1000.05
2023-03-22T04:32:53.483Z,1000.04
2023-03-22T04:33:32.975Z,999.99
2023-03-22T04:34:13.513Z,1000.01
2023-03-22T04:34:54.059Z,999.97
2023-03-22T04:35:34.526Z,999.98
2023-03-22T04:36:15.003Z,999.95
2023-03-22T04:36:55.579Z,999.94
2023-03-22T04:37:36.059Z,999.96
2023-03-22T04:38:16.559Z,999.95
2023-03-22T04:38:57.029Z,999.87
2023-03-22T04:39:37.542Z,999.89
2023-03-22T04:40:18.010Z,999.92
2023-03-22T04:40:58.510Z,999.86
2023-03-22T04:41:38.991Z,999.89
2023-03-22T04:42:19.539Z,999.87
2023-03-22T04:43:00.040Z,999.87
2023-03-22T04:43:40.480Z,999.88
2023-03-22T04:44:20.990Z,999.87
2023-03-22T04:45:01.543Z,999.87
2023-03-22T04:45:42.180Z,999.91
2023-03-22T04:46:22.569Z,999.85
2023-03-22T04:47:03.086Z,999.87
2023-03-22T04:47:43.613Z,999.88
2023-03-22T04:48:24.106Z,999.86
2023-03-22T04:49:04.570Z,999.86
2023-03-22T04:49:45.078Z,999.85
2023-03-22T04:50:25.569Z,999.81
2023-03-22T04:51:06.064Z,999.83
2023-03-22T04:51:46.569Z,999.75
2023-03-22T04:52:27.066Z,999.78
2023-03-22T04:53:07.554Z,999.76
2023-03-22T04:53:48.058Z,999.85
2023-03-22T04:54:28.544Z,999.84
2023-03-22T04:55:09.048Z,999.79
2023-03-22T04:55:49.534Z,999.77
2023-03-22T04:56:30.044Z,999.8
2023-03-22T04:57:10.507Z,999.8
2023-03-22T04:57:51.015Z,999.8
2023-03-22T04:58:31.546Z,999.85
2023-03-22T04:59:12.038Z,999.82
2023-03-22T04:59:52.518Z,999.8
2023-03-22T05:00:33.032Z,999.83
2023-03-22T05:01:13.526Z,999.93
2023-03-22T05:01:54.065Z,999.9
2023-03-22T05:02:34.618Z,999.87
2023-03-22T05:03:14.975Z,999.86
2023-03-22T05:03:55.499Z,999.9
2023-03-22T05:04:35.997Z,999.91
2023-03-22T05:05:16.508Z,999.91
2023-03-22T05:05:57.058Z,999.91
2023-03-22T05:06:37.487Z,999.9
2023-03-22T05:07:17.977Z,999.87
2023-03-22T05:07:58.448Z,999.86
2023-03-22T05:08:38.967Z,999.82
2023-03-22T05:09:21.522Z,999.87
2023-03-22T05:09:59.904Z,999.86
2023-03-22T05:10:40.824Z,999.82
2023-03-22T05:13:55.033Z,999.8
2023-03-22T05:14:35.592Z,999.8
2023-03-22T05:15:16.113Z,999.76
2023-03-22T05:15:56.666Z,999.75
2023-03-22T05:16:37.151Z,999.76
2023-03-22T05:17:17.619Z,999.74
2023-03-22T05:17:58.094Z,999.78
2023-03-22T05:18:38.620Z,999.79
2023-03-22T05:19:19.092Z,999.78
2023-03-22T05:19:59.592Z,999.8
2023-03-22T05:20:40.342Z,999.78
2023-03-22T05:21:20.547Z,999.78
2023-03-22T05:22:01.042Z,999.79
2023-03-22T05:22:41.556Z,999.79
2023-03-22T05:23:22.071Z,999.82
2023-03-22T05:24:02.550Z,999.78
2023-03-22T05:24:43.064Z,999.78
2023-03-22T05:25:23.560Z,999.82
2023-03-22T05:26:04.044Z,999.81
2023-03-22T05:26:44.552Z,999.84
2023-03-22T05:27:25.045Z,999.85
2023-03-22T05:28:05.539Z,999.85
2023-03-22T05:28:46.041Z,999.82
2023-03-22T05:29:26.535Z,999.85
2023-03-22T05:30:07.011Z,999.88
2023-03-22T05:30:47.512Z,999.88
2023-03-22T05:31:28.041Z,999.82
2023-03-22T05:32:08.518Z,999.87
2023-03-22T05:32:49.073Z,999.9
2023-03-22T05:33:29.611Z,999.94
2023-03-22T05:34:10.053Z,999.91
2023-03-22T05:34:50.562Z,999.91
2023-03-22T05:35:31.075Z,999.99
2023-03-22T05:36:11.568Z,999.96
2023-03-22T05:36:52.030Z,999.97
2023-03-22T05:37:32.544Z,999.94
2023-03-22T05:38:13.075Z,999.98
2023-03-22T05:38:53.572Z,999.96
2023-03-22T05:39:34.078Z,999.99
2023-03-22T05:40:14.554Z,999.97
2023-03-22T05:40:55.034Z,1000.05
2023-03-22T05:41:36.734Z,1000
2023-03-22T05:42:56.564Z,999.98
2023-03-22T05:43:37.032Z,1000.04
2023-03-22T05:44:17.574Z,999.96
2023-03-22T05:44:58.114Z,1000.02
2023-03-22T05:45:38.652Z,999.99
2023-03-22T05:46:19.199Z,1000
2023-03-22T05:46:59.743Z,1000.1
2023-03-22T05:47:40.162Z,999.99
2023-03-22T05:48:20.816Z,999.99
2023-03-22T05:49:01.245Z,1000.04
2023-03-22T05:49:41.721Z,1000.08
2023-03-22T05:50:22.215Z,1000.06
2023-03-22T05:51:02.678Z,1000.05
2023-03-22T05:51:43.212Z,1000.09
2023-03-22T06:30:39.489Z,1000.02
2023-03-22T06:31:19.765Z,1000.05
2023-03-22T06:32:00.247Z,1000
2023-03-22T06:32:40.754Z,1000.01
2023-03-22T06:33:21.359Z,1000.02
2023-03-22T06:34:01.867Z,999.98
2023-03-22T06:34:42.384Z,999.99
2023-03-22T06:35:22.907Z,999.96
2023-03-22T06:36:03.376Z,999.97
2023-03-22T06:36:43.922Z,999.96
2023-03-22T06:37:24.427Z,999.93
2023-03-22T06:38:04.999Z,999.97
2023-03-22T06:38:45.532Z,1000.01
2023-03-22T06:39:26.034Z,999.95
2023-03-22T06:40:06.658Z,1000
2023-03-22T06:40:47.240Z,999.99
2023-03-22T06:41:27.838Z,999.99
2023-03-22T06:42:48.829Z,1000.06
2023-03-22T06:43:29.429Z,1000.1
2023-03-22T06:44:09.880Z,1000.13
2023-03-22T06:44:50.425Z,1000.08
2023-03-22T06:45:31.052Z,1000.08
2023-03-22T06:46:11.636Z,1000.01
2023-03-22T06:46:52.104Z,1000.05
2023-03-22T06:47:32.783Z,1000.06
2023-03-22T06:48:13.397Z,1000.06
2023-03-22T06:48:53.839Z,1000.14
2023-03-22T06:49:34.396Z,1000.13
2023-03-22T06:50:14.965Z,1000.06
2023-03-22T06:50:55.461Z,1000.04
2023-03-22T06:51:36.004Z,1000.05
2023-03-22T06:52:17.182Z,1000.07
2023-03-22T06:52:57.750Z,999.98
2023-03-22T06:54:18.685Z,1000.03
2023-03-22T06:54:59.237Z,1000.03
2023-03-22T06:55:39.852Z,1000.03
2023-03-22T06:56:20.403Z,999.99
2023-03-22T06:57:00.968Z,1000.04
2023-03-22T06:57:41.504Z,1000.03
2023-03-22T06:58:22.095Z,1000.01
2023-03-22T06:59:02.706Z,1000.06
2023-03-22T06:59:43.148Z,999.99
2023-03-22T07:00:23.665Z,1000
2023-03-22T07:01:04.880Z,1000
2023-03-22T07:01:45.450Z,1000.03
2023-03-22T07:02:25.906Z,1000
2023-03-22T07:03:07.251Z,1000.06
2023-03-22T07:03:47.756Z,1000.01
2023-03-22T07:04:29.282Z,1000.04
2023-03-22T07:05:09.856Z,1000.1
2023-03-22T07:05:50.369Z,999.96
2023-03-22T07:07:11.436Z,999.97
2023-03-22T07:07:52.555Z,1000.01
2023-03-22T07:08:33.065Z,1000.02
2023-03-22T07:09:54.048Z,1000
2023-03-22T07:10:34.761Z,1000
2023-03-22T07:11:15.894Z,1000.02
2023-03-22T07:11:56.761Z,1000.03
2023-03-22T07:12:38.322Z,1000
2023-03-22T07:13:18.857Z,1000.03
2023-03-22T07:14:00.038Z,1000
2023-03-22T07:14:40.561Z,999.99
2023-03-22T07:15:21.095Z,999.97
2023-03-22T07:16:01.849Z,1000.05
2023-03-22T07:16:42.288Z,999.98
2023-03-22T07:17:23.750Z,999.97
2023-03-22T07:18:04.288Z,999.9
2023-03-22T07:18:44.854Z,999.95
2023-03-22T07:19:25.401Z,999.92
2023-03-22T07:20:05.917Z,999.94
2023-03-22T07:20:46.477Z,999.9
2023-03-22T07:21:27.048Z,999.83
2023-03-22T07:22:08.537Z,999.87
2023-03-22T07:22:49.713Z,999.83
2023-03-22T07:23:29.632Z,999.81
2023-03-22T07:24:10.170Z,999.85
2023-03-22T07:24:57.155Z,999.87
2023-03-22T07:25:31.349Z,999.8
2023-03-22T07:26:11.905Z,999.89
2023-03-22T07:26:52.437Z,999.8
2023-03-22T07:27:33.022Z,999.84
2023-03-22T07:30:32.211Z,999.83
2023-03-22T07:31:12.844Z,999.8
2023-03-22T07:31:54.327Z,999.84
2023-03-22T07:32:34.865Z,999.8
2023-03-22T07:33:15.428Z,999.81
2023-03-22T07:34:03.039Z,999.8
2023-03-22T07:36:05.658Z,999.78
2023-03-22T07:36:46.162Z,999.74
2023-03-22T07:37:26.935Z,999.72
2023-03-22T07:38:07.522Z,999.69
2023-03-22T07:38:49.049Z,999.71
2023-03-22T07:41:06.725Z,999.76
2023-03-22T07:41:51.912Z,999.71
2023-03-22T07:42:32.978Z,999.64
2023-03-22T07:43:13.386Z,999.66
2023-03-22T07:44:00.182Z,999.71
2023-03-22T07:44:34.827Z,999.72
2023-03-22T07:45:15.493Z,999.69
2023-03-22T07:45:56.742Z,999.68
2023-03-22T07:46:37.597Z,999.61
2023-03-22T07:48:54.703Z,999.73
2023-03-22T07:49:35.628Z,999.77
2023-03-22T07:50:16.996Z,999.74
2023-03-22T07:50:57.765Z,999.74
2023-03-22T07:51:38.537Z,999.74
2023-03-22T07:52:19.166Z,999.72
2023-03-22T07:53:00.012Z,999.77
2023-03-22T07:53:40.605Z,999.8
2023-03-22T07:55:02.503Z,999.83
2023-03-22T07:55:44.662Z,999.8
2023-03-22T07:56:25.504Z,999.83
2023-03-22T07:57:06.529Z,999.85
2023-03-22T07:57:47.360Z,999.85
2023-03-22T07:58:28.537Z,999.88
2023-03-22T07:59:10.468Z,999.87
2023-03-22T07:59:51.900Z,999.84
2023-03-22T08:00:33.409Z,999.88
2023-03-22T08:01:15.128Z,999.83
2023-03-22T08:01:55.948Z,999.85
2023-03-22T08:02:37.011Z,999.88
2023-03-22T08:03:19.273Z,999.87
2023-03-22T08:06:40.541Z,999.82
2023-03-22T08:07:25.649Z,999.79
2023-03-22T08:09:41.826Z,999.88
2023-03-22T08:10:24.222Z,999.84
2023-03-22T08:11:06.003Z,999.84
2023-03-22T08:11:47.227Z,999.8
2023-03-22T08:12:28.331Z,999.85
2023-03-22T08:13:10.434Z,999.91
2023-03-22T08:16:27.195Z,999.85
2023-03-22T08:17:09.315Z,999.86
2023-03-22T08:17:50.928Z,999.77
2023-03-22T08:18:36.956Z,999.76
2023-03-22T08:19:18.499Z,999.82
2023-03-22T08:20:00.954Z,999.83
2023-03-22T08:20:42.768Z,999.82
2023-03-22T08:21:24.195Z,999.82
2023-03-22T08:22:05.482Z,999.78
2023-03-22T08:22:46.686Z,999.82
2023-03-22T08:23:38.770Z,999.8
2023-03-22T08:24:09.718Z,999.8
2023-03-22T08:24:50.978Z,999.83
2023-03-22T08:25:32.034Z,999.83
2023-03-22T08:26:14.957Z,999.88
2023-03-22T08:26:57.709Z,999.86
2023-03-22T08:27:38.390Z,999.91
2023-03-22T08:28:19.898Z,999.87
2023-03-22T08:29:01.095Z,999.89
2023-03-22T08:29:43.956Z,999.9
2023-03-22T08:33:42.337Z,999.95
2023-03-22T08:34:22.851Z,999.97
2023-03-22T08:35:13.411Z,999.92
2023-03-22T08:38:44.969Z,1000
2023-03-22T08:39:26.092Z,1000.09
2023-03-22T08:40:06.445Z,1000.07
2023-03-22T08:40:47.312Z,1000
2023-03-22T08:41:28.105Z,999.99
2023-03-22T08:42:08.824Z,1000.03
2023-03-22T08:42:50.448Z,999.97
2023-03-22T08:43:31.016Z,999.97
2023-03-22T08:44:12.312Z,999.92
2023-03-22T08:44:53.099Z,1000.02
2023-03-22T08:45:33.826Z,1000.04
2023-03-22T08:46:14.879Z,1000
2023-03-22T08:46:55.555Z,999.96
2023-03-22T08:47:36.332Z,1000.01
2023-03-22T08:48:16.979Z,999.99
2023-03-22T08:48:57.762Z,999.9
2023-03-22T08:49:38.379Z,999.98
2023-03-22T08:50:18.997Z,999.97
2023-03-22T08:50:59.662Z,999.96
2023-03-22T08:51:40.826Z,999.97
2023-03-22T08:52:24.300Z,999.95
2023-03-22T08:53:04.981Z,999.94
2023-03-22T08:53:45.528Z,999.94
2023-03-22T08:54:26.221Z,999.85
2023-03-22T08:55:08.703Z,999.95
2023-03-22T08:55:49.413Z,999.98
2023-03-22T08:56:30.150Z,999.94
2023-03-22T08:57:10.741Z,999.95
2023-03-22T08:57:51.532Z,999.93
2023-03-22T08:58:32.178Z,999.92
2023-03-22T08:59:12.928Z,999.94
2023-03-22T08:59:53.562Z,999.9
2023-03-22T09:00:47.565Z,999.91
2023-03-22T09:01:14.910Z,999.91
2023-03-22T09:01:55.726Z,999.91
2023-03-22T09:02:36.893Z,999.76
2023-03-22T09:03:18.895Z,999.95
2023-03-22T09:03:59.678Z,999.97
2023-03-22T09:04:41.713Z,999.97
2023-03-22T09:05:22.267Z,999.93
2023-03-22T09:06:05.053Z,999.9
2023-03-22T09:06:45.521Z,999.9
2023-03-22T09:07:26.989Z,999.95
2023-03-22T09:08:18.091Z,999.87
2023-03-22T09:08:49.631Z,999.87
2023-03-22T09:09:31.553Z,999.91
2023-03-22T09:10:12.245Z,999.88
2023-03-22T09:10:52.992Z,999.79
2023-03-22T09:11:33.441Z,999.93
2023-03-22T09:12:14.193Z,999.9
2023-03-22T09:12:55.018Z,999.88
2023-03-22T09:13:35.525Z,999.93
2023-03-22T09:14:16.216Z,999.86
2023-03-22T09:17:11.755Z,999.79
2023-03-22T09:17:52.157Z,999.83
2023-03-22T09:18:33.605Z,999.82
2023-03-22T09:19:14.766Z,999.74
2023-03-22T09:20:06.006Z,999.8
2023-03-22T09:20:38.349Z,999.78
2023-03-22T09:21:18.852Z,999.81
2023-03-22T09:22:00.316Z,999.81
2023-03-22T09:22:40.803Z,999.79
2023-03-22T09:23:21.369Z,999.74
2023-03-22T09:24:01.965Z,999.75
2023-03-22T09:24:43.547Z,999.76
2023-03-22T09:25:24.313Z,999.75
2023-03-22T09:26:04.918Z,999.79
2023-03-22T09:26:45.714Z,999.74
2023-03-22T09:27:27.097Z,999.69
2023-03-22T09:28:08.888Z,999.77
2023-03-22T09:28:49.351Z,999.73
2023-03-22T09:29:29.961Z,999.73
2023-03-22T09:30:10.555Z,999.73
2023-03-22T09:30:51.711Z,999.7
2023-03-22T09:31:32.281Z,999.76
2023-03-22T09:32:12.941Z,999.68
2023-03-22T09:32:53.933Z,999.73
2023-03-22T09:33:34.484Z,999.71
2023-03-22T09:34:15.170Z,999.69
2023-03-22T09:34:56.494Z,999.72
2023-03-22T09:35:37.139Z,999.74
2023-03-22T09:36:17.623Z,999.77
2023-03-22T09:36:58.632Z,999.7
2023-03-22T09:37:39.987Z,999.71
2023-03-22T09:38:20.433Z,999.66
2023-03-22T09:39:01.040Z,999.73
2023-03-22T09:39:42.312Z,999.58
2023-03-22T09:40:22.959Z,999.66
2023-03-22T09:41:03.558Z,999.61
2023-03-22T09:41:44.099Z,999.64
2023-03-22T09:45:03.218Z,999.55
2023-03-22T09:45:44.693Z,999.57
2023-03-22T09:46:25.189Z,999.62
2023-03-22T09:47:05.666Z,999.5
2023-03-22T09:47:46.302Z,999.65
2023-03-22T09:48:26.827Z,999.67
2023-03-22T09:49:07.362Z,999.67
2023-03-22T09:49:53.606Z,999.71
2023-03-22T09:50:29.030Z,999.67
2023-03-22T09:51:09.542Z,999.64
2023-03-22T09:55:13.515Z,999.73
2023-03-22T09:55:53.528Z,999.61
2023-03-22T09:56:33.881Z,999.72
2023-03-22T09:57:14.463Z,999.78
2023-03-22T09:57:56.413Z,999.69
2023-03-22T09:58:37.435Z,999.63
2023-03-22T09:59:18.098Z,999.65
2023-03-22T09:59:58.874Z,999.69
2023-03-22T10:00:39.559Z,999.67
2023-03-22T10:05:28.475Z,999.59
2023-03-22T10:06:11.339Z,999.61
2023-03-22T10:06:51.883Z,999.6
2023-03-22T10:07:32.426Z,999.59
2023-03-22T10:08:13.022Z,999.63
2023-03-22T10:08:53.708Z,999.59
2023-03-22T10:09:34.548Z,999.6
2023-03-22T10:10:15.703Z,999.63
2023-03-22T10:10:56.331Z,999.64
2023-03-22T10:11:36.917Z,999.58
2023-03-22T10:12:17.493Z,999.57
2023-03-22T10:12:58.025Z,999.57
2023-03-22T10:14:19.066Z,999.55
2023-03-22T10:14:59.857Z,999.56
2023-03-22T10:15:41.407Z,999.55
2023-03-22T10:16:22.529Z,999.56
2023-03-22T10:17:03.974Z,999.57
2023-03-22T10:17:44.523Z,999.55
2023-03-22T10:18:25.358Z,999.53
2023-03-22T10:19:05.904Z,999.49
2023-03-22T10:19:46.434Z,999.5
2023-03-22T10:20:26.927Z,999.46
2023-03-22T10:21:07.652Z,999.46
2023-03-22T10:21:48.230Z,999.58
2023-03-22T10:22:29.258Z,999.49
2023-03-22T10:23:09.792Z,999.47
2023-03-22T10:23:50.855Z,999.39
2023-03-22T10:24:32.148Z,999.44
2023-03-22T10:25:12.618Z,999.45
2023-03-22T10:25:53.198Z,999.39
2023-03-22T10:26:33.869Z,999.38
2023-03-22T10:27:14.469Z,999.36